sensor_id;sensor_type;location;lat;lon;timestamp;P1;durP1;ratioP1;P2;durP2;ratioP2
40022;SDS011;25713;-35.352;149.036;2022-09-09T00:01:20;0.85;;;0.82;;
40022;SDS011;25713;-35.352;149.036;2022-09-09T00:03:57;0.90;;;0.80;;
40022;SDS011;25713;-35.352;149.036;2022-09-09T00:06:32;1.17;;;0.70;;
40022;SDS011;25713;-35.352;149.036;2022-09-09T00:09:11;0.60;;;0.60;;
40022;SDS011;25713;-35.352;149.036;2022-09-09T00:11:43;0.80;;;0.60;;
40022;SDS011;25713;-35.352;149.036;2022-09-09T00:14:20;0.55;;;0.52;;
40022;SDS011;25713;-35.352;149.036;2022-09-09T00:17:00;0.63;;;0.63;;
40022;SDS011;25713;-35.352;149.036;2022-09-09T00:19:32;0.70;;;0.60;;
40022;SDS011;25713;-35.352;149.036;2022-09-09T00:22:13;0.55;;;0.50;;
40022;SDS011;25713;-35.352;149.036;2022-09-09T00:24:45;0.82;;;0.50;;
40022;SDS011;25713;-35.352;149.036;2022-09-09T00:27:21;0.63;;;0.50;;
40022;SDS011;25713;-35.352;149.036;2022-09-09T00:29:55;0.95;;;0.40;;
40022;SDS011;25713;-35.352;149.036;2022-09-09T00:32:28;0.35;;;0.35;;
40022;SDS011;25713;-35.352;149.036;2022-09-09T00:35:02;0.45;;;0.40;;
40022;SDS011;25713;-35.352;149.036;2022-09-09T00:37:44;0.68;;;0.50;;
40022;SDS011;25713;-35.352;149.036;2022-09-09T00:40:21;0.47;;;0.40;;
40022;SDS011;25713;-35.352;149.036;2022-09-09T00:42:58;1.27;;;0.40;;
40022;SDS011;25713;-35.352;149.036;2022-09-09T00:45:54;1.00;;;0.60;;
40022;SDS011;25713;-35.352;149.036;2022-09-09T00:48:43;0.50;;;0.40;;
40022;SDS011;25713;-35.352;149.036;2022-09-09T00:51:22;1.15;;;0.60;;
40022;SDS011;25713;-35.352;149.036;2022-09-09T00:54:09;0.65;;;0.43;;
40022;SDS011;25713;-35.352;149.036;2022-09-09T00:59:28;0.30;;;0.30;;
40022;SDS011;25713;-35.352;149.036;2022-09-09T01:02:06;0.75;;;0.50;;
40022;SDS011;25713;-35.352;149.036;2022-09-09T01:04:40;0.40;;;0.32;;
40022;SDS011;25713;-35.352;149.036;2022-09-09T01:07:11;1.20;;;0.40;;
40022;SDS011;25713;-35.352;149.036;2022-09-09T01:09:50;1.05;;;0.40;;
40022;SDS011;25713;-35.352;149.036;2022-09-09T01:12:34;0.47;;;0.32;;
40022;SDS011;25713;-35.352;149.036;2022-09-09T01:15:11;0.80;;;0.40;;
40022;SDS011;25713;-35.352;149.036;2022-09-09T01:17:51;0.20;;;0.20;;
40022;SDS011;25713;-35.352;149.036;2022-09-09T01:20:26;0.38;;;0.30;;
40022;SDS011;25713;-35.352;149.036;2022-09-09T01:23:19;0.22;;;0.22;;
40022;SDS011;25713;-35.352;149.036;2022-09-09T01:26:26;0.40;;;0.30;;
40022;SDS011;25713;-35.352;149.036;2022-09-09T01:29:01;0.43;;;0.40;;
40022;SDS011;25713;-35.352;149.036;2022-09-09T01:31:38;0.20;;;0.20;;
40022;SDS011;25713;-35.352;149.036;2022-09-09T01:34:10;0.32;;;0.30;;
40022;SDS011;25713;-35.352;149.036;2022-09-09T01:36:42;0.22;;;0.20;;
40022;SDS011;25713;-35.352;149.036;2022-09-09T01:39:15;0.20;;;0.20;;
40022;SDS011;25713;-35.352;149.036;2022-09-09T01:41:49;0.30;;;0.30;;
40022;SDS011;25713;-35.352;149.036;2022-09-09T01:44:20;0.20;;;0.20;;
40022;SDS011;25713;-35.352;149.036;2022-09-09T01:46:50;0.20;;;0.20;;
40022;SDS011;25713;-35.352;149.036;2022-09-09T01:49:21;0.20;;;0.20;;
40022;SDS011;25713;-35.352;149.036;2022-09-09T01:51:52;0.20;;;0.20;;
40022;SDS011;25713;-35.352;149.036;2022-09-09T01:54:40;1.30;;;0.30;;
40022;SDS011;25713;-35.352;149.036;2022-09-09T01:57:18;0.20;;;0.20;;
40022;SDS011;25713;-35.352;149.036;2022-09-09T01:59:57;1.05;;;0.28;;
40022;SDS011;25713;-35.352;149.036;2022-09-09T02:02:43;0.40;;;0.20;;
40022;SDS011;25713;-35.352;149.036;2022-09-09T02:05:27;0.47;;;0.30;;
40022;SDS011;25713;-35.352;149.036;2022-09-09T02:08:05;0.55;;;0.20;;
40022;SDS011;25713;-35.352;149.036;2022-09-09T02:10:56;0.35;;;0.20;;
40022;SDS011;25713;-35.352;149.036;2022-09-09T02:13:43;0.10;;;0.10;;
40022;SDS011;25713;-35.352;149.036;2022-09-09T02:16:15;0.50;;;0.30;;
40022;SDS011;25713;-35.352;149.036;2022-09-09T02:18:51;1.15;;;0.22;;
40022;SDS011;25713;-35.352;149.036;2022-09-09T02:21:33;0.13;;;0.13;;
40022;SDS011;25713;-35.352;149.036;2022-09-09T02:24:03;0.45;;;0.20;;
40022;SDS011;25713;-35.352;149.036;2022-09-09T02:26:40;0.63;;;0.20;;
40022;SDS011;25713;-35.352;149.036;2022-09-09T02:29:19;0.93;;;0.20;;
40022;SDS011;25713;-35.352;149.036;2022-09-09T02:31:51;0.15;;;0.15;;
40022;SDS011;25713;-35.352;149.036;2022-09-09T02:34:27;0.30;;;0.22;;
40022;SDS011;25713;-35.352;149.036;2022-09-09T02:37:00;0.20;;;0.20;;
40022;SDS011;25713;-35.352;149.036;2022-09-09T02:39:31;0.20;;;0.20;;
40022;SDS011;25713;-35.352;149.036;2022-09-09T02:42:00;0.20;;;0.20;;
40022;SDS011;25713;-35.352;149.036;2022-09-09T02:44:35;0.40;;;0.20;;
40022;SDS011;25713;-35.352;149.036;2022-09-09T02:47:10;0.30;;;0.20;;
40022;SDS011;25713;-35.352;149.036;2022-09-09T02:49:50;0.20;;;0.20;;
40022;SDS011;25713;-35.352;149.036;2022-09-09T02:52:32;0.10;;;0.10;;
40022;SDS011;25713;-35.352;149.036;2022-09-09T02:55:08;0.20;;;0.20;;
40022;SDS011;25713;-35.352;149.036;2022-09-09T02:57:47;0.57;;;0.20;;
40022;SDS011;25713;-35.352;149.036;2022-09-09T03:03:08;0.28;;;0.28;;
40022;SDS011;25713;-35.352;149.036;2022-09-09T03:05:38;2.90;;;0.10;;
40022;SDS011;25713;-35.352;149.036;2022-09-09T03:08:08;0.10;;;0.10;;
40022;SDS011;25713;-35.352;149.036;2022-09-09T03:10:38;0.20;;;0.10;;
40022;SDS011;25713;-35.352;149.036;2022-09-09T03:13:07;0.75;;;0.10;;
40022;SDS011;25713;-35.352;149.036;2022-09-09T03:15:42;0.63;;;0.20;;
40022;SDS011;25713;-35.352;149.036;2022-09-09T03:18:16;5.70;;;0.50;;
40022;SDS011;25713;-35.352;149.036;2022-09-09T03:20:50;1.08;;;0.80;;
40022;SDS011;25713;-35.352;149.036;2022-09-09T03:23:21;1.98;;;1.60;;
40022;SDS011;25713;-35.352;149.036;2022-09-09T03:25:51;1.63;;;1.45;;
40022;SDS011;25713;-35.352;149.036;2022-09-09T03:28:28;1.55;;;0.70;;
40022;SDS011;25713;-35.352;149.036;2022-09-09T03:31:03;2.20;;;0.60;;
40022;SDS011;25713;-35.352;149.036;2022-09-09T03:33:38;0.47;;;0.45;;
40022;SDS011;25713;-35.352;149.036;2022-09-09T03:36:08;1.50;;;0.50;;
40022;SDS011;25713;-35.352;149.036;2022-09-09T03:38:38;0.50;;;0.50;;
40022;SDS011;25713;-35.352;149.036;2022-09-09T03:41:07;0.40;;;0.40;;
40022;SDS011;25713;-35.352;149.036;2022-09-09T03:43:38;0.40;;;0.38;;
40022;SDS011;25713;-35.352;149.036;2022-09-09T03:46:10;0.30;;;0.30;;
40022;SDS011;25713;-35.352;149.036;2022-09-09T03:48:40;0.40;;;0.30;;
40022;SDS011;25713;-35.352;149.036;2022-09-09T03:51:09;0.30;;;0.30;;
40022;SDS011;25713;-35.352;149.036;2022-09-09T03:53:39;0.60;;;0.60;;
40022;SDS011;25713;-35.352;149.036;2022-09-09T03:56:09;1.67;;;0.60;;
40022;SDS011;25713;-35.352;149.036;2022-09-09T03:58:39;0.47;;;0.47;;
40022;SDS011;25713;-35.352;149.036;2022-09-09T04:01:14;0.70;;;0.70;;
40022;SDS011;25713;-35.352;149.036;2022-09-09T04:03:44;0.40;;;0.40;;
40022;SDS011;25713;-35.352;149.036;2022-09-09T04:06:14;0.75;;;0.50;;
40022;SDS011;25713;-35.352;149.036;2022-09-09T04:08:46;0.35;;;0.35;;
40022;SDS011;25713;-35.352;149.036;2022-09-09T04:11:16;0.65;;;0.65;;
40022;SDS011;25713;-35.352;149.036;2022-09-09T04:13:47;0.60;;;0.60;;
40022;SDS011;25713;-35.352;149.036;2022-09-09T04:16:21;0.65;;;0.50;;
40022;SDS011;25713;-35.352;149.036;2022-09-09T04:18:51;0.50;;;0.50;;
40022;SDS011;25713;-35.352;149.036;2022-09-09T04:21:21;0.47;;;0.40;;
40022;SDS011;25713;-35.352;149.036;2022-09-09T04:23:50;0.30;;;0.30;;
40022;SDS011;25713;-35.352;149.036;2022-09-09T04:26:20;0.40;;;0.40;;
40022;SDS011;25713;-35.352;149.036;2022-09-09T04:28:49;0.30;;;0.30;;
40022;SDS011;25713;-35.352;149.036;2022-09-09T04:31:23;0.40;;;0.40;;
40022;SDS011;25713;-35.352;149.036;2022-09-09T04:33:56;1.67;;;0.32;;
40022;SDS011;25713;-35.352;149.036;2022-09-09T04:36:26;0.20;;;0.20;;
40022;SDS011;25713;-35.352;149.036;2022-09-09T04:39:00;0.30;;;0.30;;
40022;SDS011;25713;-35.352;149.036;2022-09-09T04:41:29;0.40;;;0.30;;
40022;SDS011;25713;-35.352;149.036;2022-09-09T04:43:59;0.90;;;0.40;;
40022;SDS011;25713;-35.352;149.036;2022-09-09T04:46:32;0.77;;;0.43;;
40022;SDS011;25713;-35.352;149.036;2022-09-09T04:51:32;0.20;;;0.20;;
40022;SDS011;25713;-35.352;149.036;2022-09-09T04:54:02;0.20;;;0.20;;
40022;SDS011;25713;-35.352;149.036;2022-09-09T04:56:32;0.88;;;0.30;;
40022;SDS011;25713;-35.352;149.036;2022-09-09T04:59:02;0.30;;;0.30;;
40022;SDS011;25713;-35.352;149.036;2022-09-09T05:02:00;0.25;;;0.22;;
40022;SDS011;25713;-35.352;149.036;2022-09-09T05:04:29;2.08;;;0.32;;
40022;SDS011;25713;-35.352;149.036;2022-09-09T05:06:59;0.30;;;0.30;;
40022;SDS011;25713;-35.352;149.036;2022-09-09T05:09:29;1.52;;;0.55;;
40022;SDS011;25713;-35.352;149.036;2022-09-09T05:11:59;0.32;;;0.30;;
40022;SDS011;25713;-35.352;149.036;2022-09-09T05:14:33;0.70;;;0.30;;
40022;SDS011;25713;-35.352;149.036;2022-09-09T05:17:05;0.95;;;0.30;;
40022;SDS011;25713;-35.352;149.036;2022-09-09T05:19:38;0.60;;;0.30;;
40022;SDS011;25713;-35.352;149.036;2022-09-09T05:22:07;0.30;;;0.30;;
40022;SDS011;25713;-35.352;149.036;2022-09-09T05:24:43;0.40;;;0.40;;
40022;SDS011;25713;-35.352;149.036;2022-09-09T05:27:12;1.85;;;0.47;;
40022;SDS011;25713;-35.352;149.036;2022-09-09T05:29:41;0.55;;;0.30;;
40022;SDS011;25713;-35.352;149.036;2022-09-09T05:32:14;0.30;;;0.30;;
40022;SDS011;25713;-35.352;149.036;2022-09-09T05:34:46;0.30;;;0.30;;
40022;SDS011;25713;-35.352;149.036;2022-09-09T05:37:16;0.22;;;0.22;;
40022;SDS011;25713;-35.352;149.036;2022-09-09T05:39:46;0.20;;;0.20;;
40022;SDS011;25713;-35.352;149.036;2022-09-09T05:42:15;0.30;;;0.30;;
40022;SDS011;25713;-35.352;149.036;2022-09-09T05:44:45;0.20;;;0.20;;
40022;SDS011;25713;-35.352;149.036;2022-09-09T05:47:17;0.22;;;0.22;;
40022;SDS011;25713;-35.352;149.036;2022-09-09T05:49:47;0.30;;;0.30;;
40022;SDS011;25713;-35.352;149.036;2022-09-09T05:52:16;0.60;;;0.50;;
40022;SDS011;25713;-35.352;149.036;2022-09-09T05:54:46;0.43;;;0.43;;
40022;SDS011;25713;-35.352;149.036;2022-09-09T05:57:15;3.15;;;0.80;;
40022;SDS011;25713;-35.352;149.036;2022-09-09T05:59:44;1.60;;;1.10;;
40022;SDS011;25713;-35.352;149.036;2022-09-09T06:02:14;2.28;;;1.17;;
40022;SDS011;25713;-35.352;149.036;2022-09-09T06:04:47;1.27;;;0.80;;
40022;SDS011;25713;-35.352;149.036;2022-09-09T06:07:17;2.50;;;2.25;;
40022;SDS011;25713;-35.352;149.036;2022-09-09T06:09:47;1.63;;;1.10;;
40022;SDS011;25713;-35.352;149.036;2022-09-09T06:12:16;0.60;;;0.60;;
40022;SDS011;25713;-35.352;149.036;2022-09-09T06:14:46;1.05;;;0.60;;
40022;SDS011;25713;-35.352;149.036;2022-09-09T06:17:19;0.73;;;0.60;;
40022;SDS011;25713;-35.352;149.036;2022-09-09T06:19:48;0.88;;;0.63;;
40022;SDS011;25713;-35.352;149.036;2022-09-09T06:22:18;0.60;;;0.60;;
40022;SDS011;25713;-35.352;149.036;2022-09-09T06:24:47;0.98;;;0.70;;
40022;SDS011;25713;-35.352;149.036;2022-09-09T06:27:17;0.55;;;0.50;;
40022;SDS011;25713;-35.352;149.036;2022-09-09T06:29:48;1.88;;;0.50;;
40022;SDS011;25713;-35.352;149.036;2022-09-09T06:32:20;1.17;;;0.70;;
40022;SDS011;25713;-35.352;149.036;2022-09-09T06:34:50;0.50;;;0.40;;
40022;SDS011;25713;-35.352;149.036;2022-09-09T06:37:20;0.60;;;0.52;;
40022;SDS011;25713;-35.352;149.036;2022-09-09T06:39:50;0.40;;;0.40;;
40022;SDS011;25713;-35.352;149.036;2022-09-09T06:42:20;0.57;;;0.38;;
40022;SDS011;25713;-35.352;149.036;2022-09-09T06:44:49;1.40;;;0.55;;
40022;SDS011;25713;-35.352;149.036;2022-09-09T06:47:48;0.70;;;0.40;;
40022;SDS011;25713;-35.352;149.036;2022-09-09T06:50:17;0.70;;;0.40;;
40022;SDS011;25713;-35.352;149.036;2022-09-09T06:52:47;0.52;;;0.40;;
40022;SDS011;25713;-35.352;149.036;2022-09-09T06:55:16;0.43;;;0.43;;
40022;SDS011;25713;-35.352;149.036;2022-09-09T06:57:46;0.40;;;0.40;;
40022;SDS011;25713;-35.352;149.036;2022-09-09T07:00:20;0.50;;;0.50;;
40022;SDS011;25713;-35.352;149.036;2022-09-09T07:02:52;0.40;;;0.40;;
40022;SDS011;25713;-35.352;149.036;2022-09-09T07:05:22;0.32;;;0.32;;
40022;SDS011;25713;-35.352;149.036;2022-09-09T07:07:53;0.40;;;0.40;;
40022;SDS011;25713;-35.352;149.036;2022-09-09T07:10:23;0.95;;;0.50;;
40022;SDS011;25713;-35.352;149.036;2022-09-09T07:12:53;1.00;;;0.55;;
40022;SDS011;25713;-35.352;149.036;2022-09-09T07:15:25;1.48;;;0.50;;
40022;SDS011;25713;-35.352;149.036;2022-09-09T07:17:58;0.40;;;0.40;;
40022;SDS011;25713;-35.352;149.036;2022-09-09T07:20:30;0.65;;;0.60;;
40022;SDS011;25713;-35.352;149.036;2022-09-09T07:22:59;0.50;;;0.40;;
40022;SDS011;25713;-35.352;149.036;2022-09-09T07:25:29;0.50;;;0.50;;
40022;SDS011;25713;-35.352;149.036;2022-09-09T07:27:58;1.15;;;0.50;;
40022;SDS011;25713;-35.352;149.036;2022-09-09T07:30:28;0.65;;;0.50;;
40022;SDS011;25713;-35.352;149.036;2022-09-09T07:33:01;0.50;;;0.50;;
40022;SDS011;25713;-35.352;149.036;2022-09-09T07:38:00;0.40;;;0.40;;
40022;SDS011;25713;-35.352;149.036;2022-09-09T07:40:30;0.60;;;0.40;;
40022;SDS011;25713;-35.352;149.036;2022-09-09T07:43:00;0.80;;;0.60;;
40022;SDS011;25713;-35.352;149.036;2022-09-09T07:45:29;0.70;;;0.60;;
40022;SDS011;25713;-35.352;149.036;2022-09-09T07:48:02;0.50;;;0.50;;
40022;SDS011;25713;-35.352;149.036;2022-09-09T07:50:33;0.68;;;0.40;;
40022;SDS011;25713;-35.352;149.036;2022-09-09T07:53:02;0.50;;;0.40;;
40022;SDS011;25713;-35.352;149.036;2022-09-09T07:55:32;0.75;;;0.47;;
40022;SDS011;25713;-35.352;149.036;2022-09-09T07:58:01;0.40;;;0.40;;
40022;SDS011;25713;-35.352;149.036;2022-09-09T08:00:31;1.58;;;0.60;;
40022;SDS011;25713;-35.352;149.036;2022-09-09T08:03:02;0.68;;;0.50;;
40022;SDS011;25713;-35.352;149.036;2022-09-09T08:05:32;0.50;;;0.43;;
40022;SDS011;25713;-35.352;149.036;2022-09-09T08:08:02;0.75;;;0.43;;
40022;SDS011;25713;-35.352;149.036;2022-09-09T08:10:32;0.80;;;0.50;;
40022;SDS011;25713;-35.352;149.036;2022-09-09T08:13:01;2.45;;;0.50;;
40022;SDS011;25713;-35.352;149.036;2022-09-09T08:15:31;0.60;;;0.43;;
40022;SDS011;25713;-35.352;149.036;2022-09-09T08:18:02;2.60;;;0.60;;
40022;SDS011;25713;-35.352;149.036;2022-09-09T08:20:32;0.93;;;0.60;;
40022;SDS011;25713;-35.352;149.036;2022-09-09T08:23:04;0.40;;;0.40;;
40022;SDS011;25713;-35.352;149.036;2022-09-09T08:25:34;0.68;;;0.50;;
40022;SDS011;25713;-35.352;149.036;2022-09-09T08:28:04;1.00;;;0.57;;
40022;SDS011;25713;-35.352;149.036;2022-09-09T08:30:33;0.70;;;0.70;;
40022;SDS011;25713;-35.352;149.036;2022-09-09T08:33:04;1.45;;;0.60;;
40022;SDS011;25713;-35.352;149.036;2022-09-09T08:35:34;2.10;;;0.45;;
40022;SDS011;25713;-35.352;149.036;2022-09-09T08:38:04;1.45;;;0.50;;
40022;SDS011;25713;-35.352;149.036;2022-09-09T08:40:33;1.75;;;0.93;;
40022;SDS011;25713;-35.352;149.036;2022-09-09T08:43:11;1.08;;;0.60;;
40022;SDS011;25713;-35.352;149.036;2022-09-09T08:45:43;1.13;;;0.70;;
40022;SDS011;25713;-35.352;149.036;2022-09-09T08:48:24;2.10;;;1.10;;
40022;SDS011;25713;-35.352;149.036;2022-09-09T08:51:05;1.58;;;1.00;;
40022;SDS011;25713;-35.352;149.036;2022-09-09T08:53:38;5.15;;;2.38;;
40022;SDS011;25713;-35.352;149.036;2022-09-09T08:56:11;7.32;;;4.13;;
40022;SDS011;25713;-35.352;149.036;2022-09-09T08:58:48;5.43;;;3.00;;
40022;SDS011;25713;-35.352;149.036;2022-09-09T09:04:19;3.80;;;2.28;;
40022;SDS011;25713;-35.352;149.036;2022-09-09T09:07:03;2.92;;;1.90;;
40022;SDS011;25713;-35.352;149.036;2022-09-09T09:09:41;3.28;;;2.25;;
40022;SDS011;25713;-35.352;149.036;2022-09-09T09:12:18;4.32;;;2.15;;
40022;SDS011;25713;-35.352;149.036;2022-09-09T09:14:51;2.58;;;1.80;;
40022;SDS011;25713;-35.352;149.036;2022-09-09T09:17:20;2.33;;;1.70;;
40022;SDS011;25713;-35.352;149.036;2022-09-09T09:19:54;1.77;;;1.20;;
40022;SDS011;25713;-35.352;149.036;2022-09-09T09:22:25;2.70;;;1.73;;
40022;SDS011;25713;-35.352;149.036;2022-09-09T09:25:03;4.03;;;2.00;;
40022;SDS011;25713;-35.352;149.036;2022-09-09T09:27:49;2.92;;;1.10;;
40022;SDS011;25713;-35.352;149.036;2022-09-09T09:30:26;3.40;;;2.25;;
40022;SDS011;25713;-35.352;149.036;2022-09-09T09:33:06;4.05;;;3.00;;
40022;SDS011;25713;-35.352;149.036;2022-09-09T09:35:45;5.10;;;3.63;;
40022;SDS011;25713;-35.352;149.036;2022-09-09T09:38:17;4.53;;;3.17;;
40022;SDS011;25713;-35.352;149.036;2022-09-09T09:40:50;3.70;;;2.95;;
40022;SDS011;25713;-35.352;149.036;2022-09-09T09:43:22;2.50;;;2.10;;
40022;SDS011;25713;-35.352;149.036;2022-09-09T09:45:54;2.88;;;2.00;;
40022;SDS011;25713;-35.352;149.036;2022-09-09T09:48:24;2.72;;;2.10;;
40022;SDS011;25713;-35.352;149.036;2022-09-09T09:50:58;2.85;;;2.00;;
40022;SDS011;25713;-35.352;149.036;2022-09-09T09:53:31;2.00;;;1.77;;
40022;SDS011;25713;-35.352;149.036;2022-09-09T09:56:03;2.75;;;2.00;;
40022;SDS011;25713;-35.352;149.036;2022-09-09T09:58:37;3.13;;;2.10;;
40022;SDS011;25713;-35.352;149.036;2022-09-09T10:01:20;3.08;;;1.70;;
40022;SDS011;25713;-35.352;149.036;2022-09-09T10:03:51;3.28;;;1.70;;
40022;SDS011;25713;-35.352;149.036;2022-09-09T10:06:34;1.90;;;1.70;;
40022;SDS011;25713;-35.352;149.036;2022-09-09T10:11:49;2.92;;;1.50;;
40022;SDS011;25713;-35.352;149.036;2022-09-09T10:14:24;1.50;;;1.30;;
40022;SDS011;25713;-35.352;149.036;2022-09-09T10:17:10;1.40;;;1.05;;
40022;SDS011;25713;-35.352;149.036;2022-09-09T10:19:48;0.80;;;0.80;;
40022;SDS011;25713;-35.352;149.036;2022-09-09T10:22:29;1.50;;;0.80;;
40022;SDS011;25713;-35.352;149.036;2022-09-09T10:25:08;2.30;;;1.00;;
40022;SDS011;25713;-35.352;149.036;2022-09-09T10:27:51;1.52;;;0.80;;
40022;SDS011;25713;-35.352;149.036;2022-09-09T10:30:33;0.75;;;0.75;;
40022;SDS011;25713;-35.352;149.036;2022-09-09T10:33:15;1.40;;;0.95;;
40022;SDS011;25713;-35.352;149.036;2022-09-09T10:35:52;0.90;;;0.77;;
40022;SDS011;25713;-35.352;149.036;2022-09-09T10:38:29;1.20;;;0.80;;
40022;SDS011;25713;-35.352;149.036;2022-09-09T10:41:11;0.70;;;0.60;;
40022;SDS011;25713;-35.352;149.036;2022-09-09T10:43:55;0.90;;;0.65;;
40022;SDS011;25713;-35.352;149.036;2022-09-09T10:46:48;1.05;;;0.77;;
40022;SDS011;25713;-35.352;149.036;2022-09-09T10:52:04;1.95;;;0.80;;
40022;SDS011;25713;-35.352;149.036;2022-09-09T10:54:45;0.90;;;0.65;;
40022;SDS011;25713;-35.352;149.036;2022-09-09T10:57:25;1.45;;;1.10;;
40022;SDS011;25713;-35.352;149.036;2022-09-09T10:59:58;3.38;;;0.90;;
40022;SDS011;25713;-35.352;149.036;2022-09-09T11:02:31;1.30;;;0.80;;
40022;SDS011;25713;-35.352;149.036;2022-09-09T11:05:02;1.65;;;0.90;;
40022;SDS011;25713;-35.352;149.036;2022-09-09T11:07:35;2.20;;;1.00;;
40022;SDS011;25713;-35.352;149.036;2022-09-09T11:10:16;0.70;;;0.60;;
40022;SDS011;25713;-35.352;149.036;2022-09-09T11:12:50;3.10;;;1.00;;
40022;SDS011;25713;-35.352;149.036;2022-09-09T11:15:26;1.30;;;0.90;;
40022;SDS011;25713;-35.352;149.036;2022-09-09T11:17:59;1.38;;;1.10;;
40022;SDS011;25713;-35.352;149.036;2022-09-09T11:20:31;1.92;;;0.80;;
40022;SDS011;25713;-35.352;149.036;2022-09-09T11:23:02;2.67;;;0.95;;
40022;SDS011;25713;-35.352;149.036;2022-09-09T11:25:39;1.17;;;0.85;;
40022;SDS011;25713;-35.352;149.036;2022-09-09T11:31:03;1.63;;;0.80;;
40022;SDS011;25713;-35.352;149.036;2022-09-09T11:33:56;0.88;;;0.68;;
40022;SDS011;25713;-35.352;149.036;2022-09-09T11:36:38;1.13;;;0.82;;
40022;SDS011;25713;-35.352;149.036;2022-09-09T11:39:29;0.60;;;0.55;;
40022;SDS011;25713;-35.352;149.036;2022-09-09T11:42:25;1.13;;;0.70;;
40022;SDS011;25713;-35.352;149.036;2022-09-09T11:44:55;1.00;;;0.80;;
40022;SDS011;25713;-35.352;149.036;2022-09-09T11:47:24;1.08;;;0.80;;
40022;SDS011;25713;-35.352;149.036;2022-09-09T11:49:55;0.80;;;0.60;;
40022;SDS011;25713;-35.352;149.036;2022-09-09T11:52:38;1.23;;;0.90;;
40022;SDS011;25713;-35.352;149.036;2022-09-09T11:55:09;1.63;;;0.98;;
40022;SDS011;25713;-35.352;149.036;2022-09-09T11:57:41;1.00;;;0.80;;
40022;SDS011;25713;-35.352;149.036;2022-09-09T12:03:02;2.97;;;1.52;;
40022;SDS011;25713;-35.352;149.036;2022-09-09T12:05:36;2.60;;;1.92;;
40022;SDS011;25713;-35.352;149.036;2022-09-09T12:08:10;4.20;;;2.63;;
40022;SDS011;25713;-35.352;149.036;2022-09-09T12:10:52;5.13;;;2.60;;
40022;SDS011;25713;-35.352;149.036;2022-09-09T12:13:25;4.60;;;3.05;;
40022;SDS011;25713;-35.352;149.036;2022-09-09T12:15:56;3.15;;;2.15;;
40022;SDS011;25713;-35.352;149.036;2022-09-09T12:18:31;2.90;;;2.20;;
40022;SDS011;25713;-35.352;149.036;2022-09-09T12:21:03;2.45;;;1.48;;
40022;SDS011;25713;-35.352;149.036;2022-09-09T12:23:41;3.67;;;1.70;;
40022;SDS011;25713;-35.352;149.036;2022-09-09T12:29:09;1.52;;;1.10;;
40022;SDS011;25713;-35.352;149.036;2022-09-09T12:31:53;1.90;;;1.20;;
40022;SDS011;25713;-35.352;149.036;2022-09-09T12:34:30;2.40;;;1.30;;
40022;SDS011;25713;-35.352;149.036;2022-09-09T12:37:04;1.25;;;0.98;;
40022;SDS011;25713;-35.352;149.036;2022-09-09T12:39:42;2.15;;;1.17;;
40022;SDS011;25713;-35.352;149.036;2022-09-09T12:42:17;1.23;;;1.00;;
40022;SDS011;25713;-35.352;149.036;2022-09-09T12:44:53;1.38;;;1.02;;
40022;SDS011;25713;-35.352;149.036;2022-09-09T12:47:25;1.02;;;0.65;;
40022;SDS011;25713;-35.352;149.036;2022-09-09T12:50:04;1.25;;;0.88;;
40022;SDS011;25713;-35.352;149.036;2022-09-09T12:52:42;1.00;;;0.70;;
40022;SDS011;25713;-35.352;149.036;2022-09-09T12:55:16;0.98;;;0.85;;
40022;SDS011;25713;-35.352;149.036;2022-09-09T12:57:47;1.33;;;1.05;;
40022;SDS011;25713;-35.352;149.036;2022-09-09T13:00:19;0.95;;;0.80;;
40022;SDS011;25713;-35.352;149.036;2022-09-09T13:02:50;0.88;;;0.70;;
40022;SDS011;25713;-35.352;149.036;2022-09-09T13:05:22;1.23;;;0.85;;
40022;SDS011;25713;-35.352;149.036;2022-09-09T13:08:00;1.23;;;0.80;;
40022;SDS011;25713;-35.352;149.036;2022-09-09T13:10:31;1.50;;;1.13;;
40022;SDS011;25713;-35.352;149.036;2022-09-09T13:13:04;1.33;;;0.95;;
40022;SDS011;25713;-35.352;149.036;2022-09-09T13:15:47;1.00;;;0.80;;
40022;SDS011;25713;-35.352;149.036;2022-09-09T13:18:19;1.35;;;0.80;;
40022;SDS011;25713;-35.352;149.036;2022-09-09T13:20:51;0.93;;;0.80;;
40022;SDS011;25713;-35.352;149.036;2022-09-09T13:23:21;1.40;;;0.90;;
40022;SDS011;25713;-35.352;149.036;2022-09-09T13:25:56;1.85;;;1.00;;
40022;SDS011;25713;-35.352;149.036;2022-09-09T13:28:27;1.25;;;0.80;;
40022;SDS011;25713;-35.352;149.036;2022-09-09T13:30:59;2.72;;;1.02;;
40022;SDS011;25713;-35.352;149.036;2022-09-09T13:33:30;1.00;;;0.90;;
40022;SDS011;25713;-35.352;149.036;2022-09-09T13:36:02;1.33;;;1.13;;
40022;SDS011;25713;-35.352;149.036;2022-09-09T13:38:35;1.63;;;0.80;;
40022;SDS011;25713;-35.352;149.036;2022-09-09T13:41:06;1.38;;;0.90;;
40022;SDS011;25713;-35.352;149.036;2022-09-09T13:43:38;0.75;;;0.70;;
40022;SDS011;25713;-35.352;149.036;2022-09-09T13:46:24;2.35;;;1.45;;
40022;SDS011;25713;-35.352;149.036;2022-09-09T13:48:56;0.82;;;0.70;;
40022;SDS011;25713;-35.352;149.036;2022-09-09T13:51:29;0.73;;;0.60;;
40022;SDS011;25713;-35.352;149.036;2022-09-09T13:54:03;1.50;;;0.85;;
40022;SDS011;25713;-35.352;149.036;2022-09-09T13:56:33;1.05;;;0.70;;
40022;SDS011;25713;-35.352;149.036;2022-09-09T13:59:03;0.95;;;0.70;;
40022;SDS011;25713;-35.352;149.036;2022-09-09T14:01:36;0.82;;;0.70;;
40022;SDS011;25713;-35.352;149.036;2022-09-09T14:04:05;1.42;;;0.70;;
40022;SDS011;25713;-35.352;149.036;2022-09-09T14:06:35;1.23;;;0.77;;
40022;SDS011;25713;-35.352;149.036;2022-09-09T14:09:05;1.10;;;0.60;;
40022;SDS011;25713;-35.352;149.036;2022-09-09T14:11:37;1.27;;;0.70;;
40022;SDS011;25713;-35.352;149.036;2022-09-09T14:14:06;0.70;;;0.60;;
40022;SDS011;25713;-35.352;149.036;2022-09-09T14:16:37;0.98;;;0.60;;
40022;SDS011;25713;-35.352;149.036;2022-09-09T14:19:08;1.63;;;0.75;;
40022;SDS011;25713;-35.352;149.036;2022-09-09T14:21:37;0.80;;;0.40;;
40022;SDS011;25713;-35.352;149.036;2022-09-09T14:24:06;0.75;;;0.60;;
40022;SDS011;25713;-35.352;149.036;2022-09-09T14:26:36;4.78;;;0.68;;
40022;SDS011;25713;-35.352;149.036;2022-09-09T14:29:05;0.75;;;0.47;;
40022;SDS011;25713;-35.352;149.036;2022-09-09T14:31:34;0.68;;;0.50;;
40022;SDS011;25713;-35.352;149.036;2022-09-09T14:34:06;0.63;;;0.40;;
40022;SDS011;25713;-35.352;149.036;2022-09-09T14:36:35;0.63;;;0.40;;
40022;SDS011;25713;-35.352;149.036;2022-09-09T14:39:04;0.60;;;0.57;;
40022;SDS011;25713;-35.352;149.036;2022-09-09T14:41:34;0.98;;;0.70;;
40022;SDS011;25713;-35.352;149.036;2022-09-09T14:44:03;0.50;;;0.40;;
40022;SDS011;25713;-35.352;149.036;2022-09-09T14:46:33;1.10;;;0.43;;
40022;SDS011;25713;-35.352;149.036;2022-09-09T14:49:05;0.50;;;0.40;;
40022;SDS011;25713;-35.352;149.036;2022-09-09T14:51:34;0.20;;;0.20;;
40022;SDS011;25713;-35.352;149.036;2022-09-09T15:54:54;0.95;;;0.30;;
40022;SDS011;25713;-35.352;149.036;2022-09-09T15:57:24;0.10;;;0.10;;
40022;SDS011;25713;-35.352;149.036;2022-09-09T15:59:53;0.28;;;0.20;;
40022;SDS011;25713;-35.352;149.036;2022-09-09T16:02:23;0.65;;;0.20;;
40022;SDS011;25713;-35.352;149.036;2022-09-09T16:04:52;0.32;;;0.32;;
40022;SDS011;25713;-35.352;149.036;2022-09-09T16:07:21;0.22;;;0.20;;
40022;SDS011;25713;-35.352;149.036;2022-09-09T16:09:50;0.40;;;0.20;;
40022;SDS011;25713;-35.352;149.036;2022-09-09T16:12:22;2.50;;;0.30;;
40022;SDS011;25713;-35.352;149.036;2022-09-09T16:14:51;0.30;;;0.30;;